Time;durP1;ratioP1;P1;durP2;ratioP2;P2;SDS_P1;SDS_P2;PMS_P1;PMS_P2;Temp;Humidity;BMP_temperature;BMP_pressure;BME280_temperature;BME280_humidity;BME280_pressure;Samples;Min_cycle;Max_cycle;Signal;HPM_P1;HPM_P2
2023/08/07 00:01:30;;;;;;;1.65;0.60;;;;;;;14.31;87.02;101529.06;5015550;28;97264;-27
2023/08/07 00:03:55;;;;;;;1.92;0.63;;;;;;;14.26;87.02;101523.03;5015939;28;96663;-26
2023/08/07 00:06:20;;;;;;;4.60;0.55;;;;;;;14.27;86.64;101511.16;5015890;28;96789;-27
2023/08/07 00:08:46;;;;;;;1.63;0.47;;;;;;;14.36;86.56;101530.50;5014600;28;98821;-26
2023/08/07 00:11:11;;;;;;;2.63;0.55;;;;;;;14.36;86.32;101524.19;5015088;28;99259;-26
2023/08/07 00:13:37;;;;;;;1.80;0.68;;;;;;;14.33;85.98;101519.81;5015648;28;97031;-27
2023/08/07 00:16:02;;;;;;;2.75;0.47;;;;;;;14.31;85.46;101519.03;5013814;28;96949;-28
2023/08/07 00:18:31;;;;;;;5.10;0.68;;;;;;;14.37;85.68;101529.53;5013804;28;99484;-26
2023/08/07 00:20:56;;;;;;;2.55;0.65;;;;;;;14.35;86.04;101552.38;5013742;28;101047;-27
2023/08/07 00:23:22;;;;;;;3.42;0.57;;;;;;;14.31;86.83;101545.41;5015634;28;96716;-26
2023/08/07 00:25:47;;;;;;;3.45;0.65;;;;;;;14.26;87.84;101566.66;5015460;28;96877;-27
2023/08/07 00:28:12;;;;;;;1.55;0.68;;;;;;;14.17;88.17;101555.34;5015226;28;97542;-27
2023/08/07 00:30:38;;;;;;;0.93;0.43;;;;;;;14.09;88.22;101554.13;5014676;28;99128;-27
2023/08/07 00:33:03;;;;;;;0.68;0.40;;;;;;;14.02;87.76;101543.63;5014540;28;96494;-27
2023/08/07 00:35:28;;;;;;;2.55;0.90;;;;;;;14.00;87.77;101548.28;5014480;28;96880;-26
2023/08/07 00:37:54;;;;;;;3.38;0.50;;;;;;;13.96;87.45;101543.13;5014090;28;98046;-27
2023/08/07 00:40:19;;;;;;;0.55;0.40;;;;;;;13.89;87.79;101550.81;5014889;28;97929;-27
2023/08/07 00:42:44;;;;;;;1.20;0.38;;;;;;;13.90;88.26;101541.69;5015338;28;96486;-27
2023/08/07 00:45:10;;;;;;;0.47;0.38;;;;;;;13.93;88.82;101543.34;5015019;28;96765;-27
2023/08/07 00:47:37;;;;;;;3.78;0.90;;;;;;;13.96;89.11;101552.19;5014825;28;97492;-27
2023/08/07 00:50:04;;;;;;;2.58;0.73;;;;;;;13.93;88.96;101544.22;5013542;28;100876;-27
2023/08/07 00:52:29;;;;;;;1.95;0.57;;;;;;;13.97;89.12;101553.94;5013533;28;96658;-27
2023/08/07 00:54:55;;;;;;;2.50;0.57;;;;;;;13.98;89.47;101557.53;5013587;28;96843;-27
2023/08/07 00:57:22;;;;;;;3.50;0.70;;;;;;;14.02;89.65;101556.38;5014367;28;97968;-27
2023/08/07 00:59:48;;;;;;;2.90;0.70;;;;;;;14.01;89.37;101558.22;5012783;28;101129;-27
2023/08/07 01:02:15;;;;;;;1.42;0.57;;;;;;;14.03;89.01;101550.81;5013389;28;96581;-26
2023/08/07 01:04:40;;;;;;;1.77;0.55;;;;;;;14.05;89.45;101545.25;5013298;28;96921;-27
2023/08/07 01:07:06;;;;;;;1.25;0.50;;;;;;;14.11;89.18;101550.31;5014287;28;99239;-28
2023/08/07 01:09:32;;;;;;;1.48;0.70;;;;;;;14.12;89.07;101556.66;5014323;28;99177;-27
2023/08/07 01:12:18;;;;;;;3.10;0.60;;;;;;;14.11;88.75;101554.88;5013342;28;96629;-27
2023/08/07 01:14:58;;;;;;;4.05;0.55;;;;;;;14.09;88.04;101556.84;5013771;28;96715;-27
2023/08/07 01:17:25;;;;;;;2.38;0.60;;;;;;;14.05;87.35;101553.44;5012897;28;101366;-28
2023/08/07 01:19:52;;;;;;;2.35;0.68;;;;;;;14.09;86.84;101556.84;5014425;28;97326;-27
2023/08/07 01:22:19;;;;;;;0.88;0.60;;;;;;;13.99;86.78;101540.19;5014136;28;96546;-27
2023/08/07 01:24:49;;;;;;;0.57;0.30;;;;;;;14.12;86.74;101557.50;5014077;28;96834;-27
2023/08/07 01:27:17;;;;;;;3.83;1.00;;;;;;;14.13;86.21;101558.38;5012704;28;102532;-28
2023/08/07 01:30:12;;;;;;;1.90;0.80;;;;;;;14.13;86.51;101553.81;5014388;28;97124;-27
2023/08/07 01:32:55;;;;;;;2.33;0.90;;;;;;;14.12;85.58;101553.91;5008924;28;96781;-27
2023/08/07 01:35:26;;;;;;;1.63;0.60;;;;;;;14.11;84.94;101542.16;5014257;28;96765;-27
2023/08/07 01:37:54;;;;;;;3.63;0.68;;;;;;;14.15;84.87;101548.25;5013310;28;99702;-27
2023/08/07 01:40:21;;;;;;;1.65;0.73;;;;;;;14.13;84.79;101542.03;5012990;28;102172;-27
2023/08/07 01:42:47;;;;;;;2.28;0.60;;;;;;;14.19;84.81;101549.81;5012976;28;96534;-26
2023/08/07 01:45:13;;;;;;;4.50;1.08;;;;;;;14.20;84.37;101540.66;5014768;28;96867;-27
2023/08/07 01:47:38;;;;;;;1.23;0.60;;;;;;;14.18;84.14;101548.94;5015663;28;101594;-27
2023/08/07 01:50:04;;;;;;;3.45;1.02;;;;;;;14.22;83.97;101549.59;5017619;28;97282;-27
2023/08/07 01:52:30;;;;;;;2.28;0.73;;;;;;;14.21;84.00;101547.88;5017601;28;96515;-27
2023/08/07 01:54:55;;;;;;;3.63;0.82;;;;;;;14.24;83.72;101545.81;5017924;28;96774;-27
2023/08/07 01:57:21;;;;;;;1.17;0.60;;;;;;;14.27;83.90;101554.75;5017233;28;99694;-27
2023/08/07 01:59:46;;;;;;;2.00;0.55;;;;;;;14.25;84.03;101549.41;5017310;28;97732;-26
2023/08/07 02:02:11;;;;;;;1.13;0.55;;;;;;;14.23;83.93;101549.53;5017258;28;96528;-27
2023/08/07 02:04:37;;;;;;;1.35;0.65;;;;;;;14.23;84.30;101556.81;5017730;28;96877;-27
2023/08/07 02:07:02;;;;;;;2.50;0.90;;;;;;;14.27;84.34;101563.81;5017197;28;97721;-26
2023/08/07 02:09:28;;;;;;;6.57;1.20;;;;;;;14.25;84.06;101557.56;5017069;28;98981;-27
2023/08/07 02:11:53;;;;;;;4.72;0.90;;;;;;;14.22;83.86;101545.03;5016758;28;96520;-27
2023/08/07 02:14:19;;;;;;;3.75;1.13;;;;;;;14.25;84.06;101557.56;5017809;28;96781;-27
2023/08/07 02:16:44;;;;;;;1.17;0.43;;;;;;;14.23;84.00;101563.16;5016934;28;99502;-29
2023/08/07 02:19:09;;;;;;;2.25;0.63;;;;;;;14.22;83.39;101553.19;5017000;28;97809;-28
2023/08/07 02:21:35;;;;;;;1.17;0.50;;;;;;;14.21;82.90;101554.19;5017269;28;96636;-27
2023/08/07 02:24:00;;;;;;;1.10;0.50;;;;;;;14.22;82.45;101561.38;5017335;28;96858;-26
2023/08/07 02:26:25;;;;;;;1.70;0.80;;;;;;;14.23;82.10;101554.97;5017083;28;98057;-27
2023/08/07 02:28:51;;;;;;;3.50;0.65;;;;;;;14.23;81.24;101554.09;5017289;28;97751;-27
2023/08/07 02:31:16;;;;;;;1.48;0.65;;;;;;;14.29;81.43;101561.00;5017351;28;96486;-26
2023/08/07 02:33:42;;;;;;;1.83;0.68;;;;;;;14.25;80.66;101549.41;5017294;28;96876;-27
2023/08/07 02:36:07;;;;;;;2.45;0.90;;;;;;;14.26;81.75;101556.63;5016584;28;97586;-27
2023/08/07 02:38:33;;;;;;;0.88;0.55;;;;;;;14.30;81.42;101558.16;5016092;28;97710;-27
2023/08/07 02:40:59;;;;;;;3.25;0.70;;;;;;;14.32;81.56;101556.19;5017291;28;97817;-27
2023/08/07 02:43:24;;;;;;;1.42;0.63;;;;;;;14.29;81.57;101550.09;5017102;28;96760;-27
2023/08/07 02:45:49;;;;;;;1.05;0.60;;;;;;;14.31;81.51;101557.19;5016746;28;98009;-27
2023/08/07 02:48:15;;;;;;;0.90;0.45;;;;;;;14.31;81.42;101559.91;5016471;28;97773;-28
2023/08/07 02:50:40;;;;;;;2.50;0.70;;;;;;;14.26;80.88;101543.00;5017041;28;96841;-26
2023/08/07 02:53:05;;;;;;;2.20;0.55;;;;;;;14.33;81.40;101563.41;5017265;28;96825;-26
2023/08/07 02:55:31;;;;;;;0.77;0.50;;;;;;;14.27;81.76;101558.34;5016391;28;99243;-27
2023/08/07 02:57:56;;;;;;;2.35;0.63;;;;;;;14.31;81.72;101557.19;5015146;28;99431;-27
2023/08/07 03:00:21;;;;;;;1.50;0.52;;;;;;;14.27;81.77;101558.34;5016405;28;96679;-27
2023/08/07 03:02:47;;;;;;;4.43;1.00;;;;;;;14.24;81.83;101566.75;5016284;28;96831;-27
2023/08/07 03:05:12;;;;;;;1.80;0.82;;;;;;;14.28;82.35;101581.03;5016377;28;97829;-28
2023/08/07 03:07:38;;;;;;;1.63;0.85;;;;;;;14.22;84.10;101591.34;5016505;28;97288;-27
2023/08/07 03:10:04;;;;;;;3.28;0.73;;;;;;;14.14;84.95;101571.91;5016731;28;96715;-27
2023/08/07 03:12:29;;;;;;;0.95;0.63;;;;;;;14.13;85.94;101578.31;5015308;28;96929;-27
2023/08/07 03:14:54;;;;;;;1.27;0.65;;;;;;;14.11;86.67;101583.03;5016272;28;97971;-27
2023/08/07 03:17:20;;;;;;;2.08;0.55;;;;;;;14.07;86.48;101567.84;5016551;28;97770;-27
2023/08/07 03:19:46;;;;;;;1.98;0.70;;;;;;;14.09;87.25;101581.38;5016568;28;96642;-27
2023/08/07 03:22:12;;;;;;;4.43;0.30;;;;;;;14.01;87.37;101579.13;5015188;28;96793;-26
2023/08/07 03:24:37;;;;;;;3.45;0.82;;;;;;;13.98;87.98;101582.91;5015543;28;97409;-28
2023/08/07 03:27:03;;;;;;;1.35;0.52;;;;;;;13.94;88.53;101584.13;5016168;28;96561;-26
2023/08/07 03:29:28;;;;;;;1.98;0.60;;;;;;;13.94;88.60;101584.13;5016454;28;96593;-27
2023/08/07 03:31:53;;;;;;;2.63;0.73;;;;;;;13.91;88.71;101572.53;5016313;28;96782;-27
2023/08/07 03:34:19;;;;;;;1.13;0.38;;;;;;;13.88;88.68;101584.50;5015700;28;98943;-26
2023/08/07 03:36:45;;;;;;;1.10;0.40;;;;;;;13.91;88.59;101594.31;5015761;28;97416;-27
2023/08/07 03:39:12;;;;;;;0.60;0.40;;;;;;;13.88;88.57;101587.22;5014478;28;96798;-27
2023/08/07 03:41:37;;;;;;;0.88;0.40;;;;;;;13.87;88.43;101581.84;5015166;28;96846;-27
2023/08/07 03:44:03;;;;;;;1.92;0.55;;;;;;;13.90;88.34;101590.72;5015812;28;97462;-27
2023/08/07 03:46:28;;;;;;;3.35;0.40;;;;;;;13.84;88.94;101582.91;5015450;28;97719;-28
2023/08/07 03:48:54;;;;;;;3.38;0.85;;;;;;;13.83;89.00;101585.75;5016007;28;96463;-27
2023/08/07 03:51:19;;;;;;;0.50;0.28;;;;;;;13.84;88.82;101591.09;5016021;28;96797;-26
2023/08/07 03:53:44;;;;;;;1.23;0.35;;;;;;;13.84;88.47;101579.34;5015543;28;98822;-27
2023/08/07 03:56:10;;;;;;;2.15;0.63;;;;;;;13.89;88.71;101577.19;5015630;28;97829;-27
2023/08/07 03:58:35;;;;;;;2.83;0.50;;;;;;;13.90;88.33;101582.53;5015882;28;96484;-27
2023/08/07 04:01:01;;;;;;;0.43;0.25;;;;;;;13.83;88.38;101573.00;5016135;28;96792;-27
2023/08/07 04:03:26;;;;;;;2.10;0.70;;;;;;;13.83;88.63;101569.44;5015242;28;97867;-27
2023/08/07 04:05:53;;;;;;;2.38;0.63;;;;;;;13.83;88.56;101574.88;5015890;28;97848;-27
2023/08/07 04:08:19;;;;;;;0.65;0.40;;;;;;;13.89;88.37;101579.91;5014102;28;96638;-27
2023/08/07 04:10:44;;;;;;;1.35;0.70;;;;;;;13.90;87.91;101584.41;5014322;28;96871;-26
2023/08/07 04:13:09;;;;;;;2.67;0.60;;;;;;;13.89;88.39;101572.59;5015018;28;97457;-27
2023/08/07 04:15:35;;;;;;;1.08;0.38;;;;;;;13.93;88.28;101578.75;5015029;28;97289;-26
2023/08/07 04:18:00;;;;;;;3.58;0.60;;;;;;;13.96;88.28;101581.25;5015686;28;96510;-27
2023/08/07 04:20:26;;;;;;;0.73;0.45;;;;;;;13.98;88.17;101584.78;5015678;28;96782;-26
2023/08/07 04:22:52;;;;;;;1.48;0.60;;;;;;;13.96;88.13;101570.38;5015153;28;97914;-26
2023/08/07 04:25:17;;;;;;;2.22;0.70;;;;;;;13.97;88.00;101569.41;5015069;28;97900;-27
2023/08/07 04:27:42;;;;;;;1.38;0.45;;;;;;;13.98;88.32;101576.59;5015205;28;96501;-26
2023/08/07 04:30:08;;;;;;;1.00;0.43;;;;;;;13.92;88.01;101564.25;5015693;28;96823;-26
2023/08/07 04:32:34;;;;;;;0.57;0.32;;;;;;;13.98;88.11;101576.59;5015032;28;97942;-27
2023/08/07 04:34:59;;;;;;;2.33;0.77;;;;;;;14.02;87.95;101575.44;5014668;28;99215;-26
2023/08/07 04:37:24;;;;;;;2.47;0.80;;;;;;;14.03;88.05;101583.50;5014621;28;96607;-26
2023/08/07 04:39:50;;;;;;;0.77;0.55;;;;;;;14.07;87.87;101584.19;5014818;28;99578;-27
2023/08/07 04:42:15;;;;;;;1.45;0.47;;;;;;;13.98;88.01;101577.47;5015098;28;98018;-27
2023/08/07 04:44:41;;;;;;;4.28;1.05;;;;;;;14.07;86.56;101588.75;5014687;28;97308;-27
2023/08/07 04:47:06;;;;;;;2.70;0.90;;;;;;;14.08;86.70;101594.09;5015214;28;96564;-27
2023/08/07 04:49:31;;;;;;;1.35;0.60;;;;;;;14.10;86.16;101594.88;5015075;28;96826;-27
2023/08/07 04:51:57;;;;;;;4.07;0.82;;;;;;;14.10;85.73;101605.78;5014804;28;97513;-27
2023/08/07 04:54:22;;;;;;;1.13;0.57;;;;;;;14.12;85.09;101595.66;5015428;28;97190;-27
2023/08/07 04:56:48;;;;;;;1.23;0.70;;;;;;;14.14;85.39;101595.56;5014888;28;96588;-26
2023/08/07 04:59:13;;;;;;;2.35;0.63;;;;;;;14.18;85.45;101597.09;5015109;28;96761;-27
2023/08/07 05:01:39;;;;;;;4.30;0.55;;;;;;;14.14;84.72;101596.44;5013885;28;98104;-26
2023/08/07 05:04:05;;;;;;;2.65;0.95;;;;;;;14.15;84.27;101602.75;5014670;28;97257;-27
2023/08/07 05:06:31;;;;;;;3.67;0.63;;;;;;;14.17;84.56;101600.81;5014706;28;96591;-27
2023/08/07 05:08:56;;;;;;;1.27;0.35;;;;;;;14.09;83.62;101595.00;5013520;28;96900;-27
2023/08/07 05:11:21;;;;;;;2.75;0.43;;;;;;;14.14;83.84;101617.38;5014729;28;98047;-28
2023/08/07 05:13:47;;;;;;;0.75;0.40;;;;;;;14.14;82.73;101603.75;5014669;28;97953;-28
2023/08/07 05:16:12;;;;;;;4.63;0.52;;;;;;;14.17;82.82;101608.97;5014951;28;96640;-29
2023/08/07 05:18:38;;;;;;;1.60;0.50;;;;;;;14.19;82.57;101613.34;5015122;28;96782;-26
2023/08/07 05:21:03;;;;;;;0.70;0.52;;;;;;;14.20;83.04;101623.28;5016440;28;97890;-26
2023/08/07 05:23:28;;;;;;;7.78;0.77;;;;;;;14.21;82.35;101621.44;5018038;28;97832;-27
2023/08/07 05:25:54;;;;;;;2.25;0.47;;;;;;;14.19;82.48;101617.94;5017763;28;96690;-27
2023/08/07 05:28:19;;;;;;;2.28;0.68;;;;;;;14.23;82.54;101614.91;5018299;28;96796;-27
2023/08/07 05:30:44;;;;;;;3.33;0.80;;;;;;;14.19;82.47;101617.94;5017565;28;97601;-27
2023/08/07 05:33:10;;;;;;;1.83;0.47;;;;;;;14.16;82.34;101612.69;5018001;28;97786;-26
2023/08/07 05:35:37;;;;;;;0.35;0.17;;;;;;;14.22;82.39;101610.44;5018188;28;96588;-28
2023/08/07 05:38:03;;;;;;;1.67;0.70;;;;;;;14.19;82.09;101607.03;5017602;28;96910;-26
2023/08/07 05:40:29;;;;;;;1.65;0.57;;;;;;;14.28;82.13;101613.72;5016390;28;101214;-26
2023/08/07 05:42:55;;;;;;;1.88;0.68;;;;;;;14.33;82.27;101622.50;5017901;28;98675;-27
2023/08/07 05:45:20;;;;;;;2.33;0.57;;;;;;;14.31;81.93;101621.72;5017585;28;96694;-27
2023/08/07 05:47:46;;;;;;;4.22;0.45;;;;;;;14.34;81.75;101625.09;5017951;28;96801;-27
2023/08/07 05:50:11;;;;;;;3.15;0.70;;;;;;;14.37;81.26;101635.84;5017245;28;97965;-27
2023/08/07 05:52:36;;;;;;;1.08;0.45;;;;;;;14.39;81.16;101636.59;5016076;28;98835;-27
2023/08/07 05:55:03;;;;;;;3.65;0.50;;;;;;;14.41;81.26;101640.09;5016392;28;96668;-26
2023/08/07 05:57:29;;;;;;;1.35;0.50;;;;;;;14.41;81.46;101641.94;5016197;28;96934;-27
2023/08/07 05:59:54;;;;;;;1.48;0.35;;;;;;;14.45;81.34;101648.97;5017549;28;97916;-27
2023/08/07 06:02:19;;;;;;;3.97;0.70;;;;;;;14.43;81.40;101642.72;5017310;28;97406;-28
2023/08/07 06:04:45;;;;;;;1.50;0.60;;;;;;;14.48;81.55;101648.75;5017596;28;96611;-27
2023/08/07 06:07:10;;;;;;;2.17;0.55;;;;;;;14.52;81.41;101653.03;5017787;28;96870;-26
2023/08/07 06:09:36;;;;;;;3.92;0.98;;;;;;;14.54;81.73;101644.78;5017131;28;99272;-28
2023/08/07 06:12:02;;;;;;;0.85;0.55;;;;;;;14.57;81.21;101648.19;5017220;28;98157;-26
2023/08/07 06:14:28;;;;;;;1.85;0.60;;;;;;;14.68;81.32;101647.47;5017110;28;96580;-27
2023/08/07 06:16:54;;;;;;;3.15;0.85;;;;;;;14.73;80.85;101656.25;5017499;28;96858;-26
2023/08/07 06:19:22;;;;;;;4.43;1.02;;;;;;;14.82;80.44;101654.72;5016957;28;98005;-26
2023/08/07 08:43:34;;;;;;;1.40;0.47;;;;;;;18.10;59.51;101769.63;4999390;28;96864;-27
2023/08/07 08:46:04;;;;;;;0.50;0.35;;;;;;;18.40;60.58;101779.13;5014934;28;98040;-27
2023/08/07 08:52:05;;;;;;;0.60;0.30;;;;;;;18.37;60.40;101776.63;5014330;28;96814;-26
2023/08/07 08:54:32;;;;;;;2.75;0.70;;;;;;;18.16;59.67;101792.91;5012843;28;96565;-27
2023/08/07 08:56:59;;;;;;;1.27;0.50;;;;;;;17.92;59.72;101791.09;5012505;28;101342;-27
2023/08/07 08:59:25;;;;;;;4.32;0.63;;;;;;;18.14;60.64;101789.44;5013353;28;100885;-27
2023/08/07 09:01:52;;;;;;;1.10;0.45;;;;;;;18.03;58.47;101790.28;5012852;28;96635;-27
2023/08/07 09:04:18;;;;;;;1.80;0.52;;;;;;;18.20;60.01;101787.06;5013565;28;96830;-27
2023/08/07 09:06:44;;;;;;;1.48;0.52;;;;;;;18.31;60.44;101796.34;5012918;28;100820;-26
2023/08/07 09:09:13;;;;;;;0.90;0.40;;;;;;;18.43;60.43;101792.63;5013125;28;100715;-27
2023/08/07 09:11:41;;;;;;;1.23;0.38;;;;;;;18.53;59.09;101799.13;5013218;28;96685;-27
2023/08/07 09:14:09;;;;;;;3.28;0.95;;;;;;;18.65;58.81;101795.38;5013689;28;96993;-27
2023/08/07 09:16:35;;;;;;;2.75;0.60;;;;;;;18.93;59.45;101800.56;5013079;28;100931;-28
2023/08/07 09:19:01;;;;;;;3.35;0.82;;;;;;;19.10;58.66;101792.66;5012923;28;100760;-27
2023/08/07 09:21:27;;;;;;;1.48;0.70;;;;;;;19.36;59.08;101789.63;5014354;28;96468;-27
2023/08/07 09:23:53;;;;;;;2.80;0.43;;;;;;;19.56;58.26;101798.91;5013224;28;96801;-28
2023/08/07 09:26:23;;;;;;;2.13;0.38;;;;;;;19.43;56.03;101788.09;5013637;28;99381;-27
2023/08/07 09:28:52;;;;;;;2.33;0.57;;;;;;;19.42;57.38;101800.06;5014018;28;97344;-28
2023/08/07 09:31:17;;;;;;;1.25;0.47;;;;;;;19.39;55.41;101794.84;5012576;28;96683;-27
2023/08/07 09:33:48;;;;;;;1.55;0.43;;;;;;;19.29;55.63;101804.88;5014123;28;96812;-27
2023/08/07 09:36:13;;;;;;;1.50;0.57;;;;;;;19.16;57.15;101799.50;5013900;28;99476;-27
2023/08/07 09:38:38;;;;;;;1.02;0.40;;;;;;;19.32;57.48;101807.34;5014217;28;97744;-27
2023/08/07 09:41:04;;;;;;;1.88;0.43;;;;;;;19.59;56.54;101804.16;5014442;28;96697;-26
2023/08/07 09:43:34;;;;;;;0.68;0.45;;;;;;;19.76;54.87;101816.53;5014348;28;96865;-27
2023/08/07 09:46:04;;;;;;;2.85;0.70;;;;;;;19.85;54.31;101804.72;5013428;28;98039;-27
2023/08/07 09:48:29;;;;;;;2.20;0.73;;;;;;;19.67;56.05;101806.28;5011864;28;100723;-31
2023/08/07 09:50:59;;;;;;;1.70;0.50;;;;;;;19.82;55.16;101817.88;5011955;28;97066;-26
2023/08/07 09:53:29;;;;;;;1.05;0.35;;;;;;;20.03;55.26;101820.66;5010228;28;97152;-28
2023/08/07 09:55:55;;;;;;;2.50;0.63;;;;;;;20.01;54.30;101819.91;5009832;28;99261;-27
2023/08/07 09:58:20;;;;;;;1.55;0.60;;;;;;;20.03;54.55;101817.91;5011597;28;97765;-32
2023/08/07 10:00:47;;;;;;;2.63;0.52;;;;;;;20.09;52.43;101822.84;5011648;28;97056;-27
2023/08/07 10:03:14;;;;;;;2.67;0.80;;;;;;;20.14;55.21;101820.56;5011802;28;97013;-27
2023/08/07 10:05:41;;;;;;;1.08;0.50;;;;;;;20.30;54.34;101828.38;5011966;28;100748;-27
2023/08/07 10:08:06;;;;;;;2.08;0.55;;;;;;;20.48;53.72;101823.16;5016927;28;99461;-27
2023/08/07 10:10:34;;;;;;;2.08;0.38;;;;;;;20.64;53.22;101826.34;5015546;28;96799;-26
2023/08/07 10:13:01;;;;;;;1.90;0.77;;;;;;;20.70;53.52;101831.28;5017382;28;96861;-26
2023/08/07 10:15:27;;;;;;;1.00;0.65;;;;;;;20.70;52.68;101824.91;5017013;28;98943;-27
2023/08/07 10:17:53;;;;;;;2.42;0.52;;;;;;;20.86;53.50;101829.94;5015851;28;101193;-27
2023/08/07 10:20:20;;;;;;;0.93;0.50;;;;;;;20.73;51.64;101825.50;5016899;28;97710;-27
2023/08/07 10:22:46;;;;;;;1.83;0.60;;;;;;;20.78;51.98;101837.00;5017254;28;96816;-27
2023/08/07 10:25:11;;;;;;;2.33;0.75;;;;;;;20.96;52.85;101833.59;5015435;28;101155;-27
2023/08/07 10:27:39;;;;;;;1.83;0.55;;;;;;;20.97;51.46;101835.31;5017218;28;99176;-27
2023/08/07 10:30:09;;;;;;;3.53;0.63;;;;;;;21.00;51.41;101835.94;5015919;28;96773;-28
2023/08/07 10:32:35;;;;;;;2.38;0.55;;;;;;;20.98;50.94;101832.44;5015684;28;96870;-26
2023/08/07 10:35:05;;;;;;;0.60;0.30;;;;;;;20.97;49.00;101851.84;5015036;28;101255;-26
2023/08/07 10:37:42;;;;;;;2.00;0.70;;;;;;;21.02;51.69;101844.03;5015070;28;102284;-27
2023/08/07 10:40:10;;;;;;;4.30;0.50;;;;;;;21.13;51.46;101840.31;5015627;28;96723;-27
2023/08/07 10:42:54;;;;;;;1.27;0.55;;;;;;;21.27;49.55;101847.34;5015684;28;96832;-27
2023/08/07 10:45:22;;;;;;;2.15;0.90;;;;;;;21.29;50.69;101846.19;5016154;28;97951;-26
2023/08/07 10:48:20;;;;;;;0.77;0.50;;;;;;;21.11;48.93;101847.84;5015096;28;101500;-26
2023/08/07 10:51:04;;;;;;;1.45;0.32;;;;;;;21.10;48.56;101858.00;4995909;28;98045;-27
2023/08/07 10:53:31;;;;;;;1.23;0.57;;;;;;;21.20;51.14;101838.75;4995316;28;96719;-27
2023/08/07 10:56:04;;;;;;;1.67;0.60;;;;;;;21.11;49.28;101837.69;4994648;28;100950;-26
2023/08/07 10:58:32;;;;;;;3.92;0.70;;;;;;;21.20;51.72;101844.28;4996222;28;99260;-27
2023/08/07 11:01:20;;;;;;;1.58;0.60;;;;;;;21.28;50.25;101849.06;4994823;28;96703;-27
2023/08/07 11:03:49;;;;;;;1.52;0.45;;;;;;;21.25;48.69;101850.22;4996879;28;96911;-27
2023/08/07 11:06:15;;;;;;;1.17;0.70;;;;;;;21.30;49.34;101852.56;4994887;28;100901;-27
2023/08/07 11:08:41;;;;;;;0.93;0.50;;;;;;;21.27;48.97;101850.97;4994881;28;101871;-26
2023/08/07 11:11:07;;;;;;;1.13;0.50;;;;;;;21.31;48.15;101849.69;4996683;28;96629;-27
2023/08/07 11:13:35;;;;;;;2.13;1.05;;;;;;;21.40;48.37;101848.88;4994431;28;96978;-28
2023/08/07 11:16:04;;;;;;;1.25;0.60;;;;;;;21.59;47.60;101838.88;4993903;28;99050;-27
2023/08/07 11:18:31;;;;;;;1.63;0.75;;;;;;;21.68;47.83;101856.47;4991578;28;99220;-27
2023/08/07 11:20:57;;;;;;;3.03;0.60;;;;;;;21.74;48.90;101840.25;4994054;28;96945;-31
2023/08/07 11:23:27;;;;;;;2.63;0.73;;;;;;;21.80;47.08;101841.53;4992454;28;97117;-27
2023/08/07 11:25:52;;;;;;;3.25;0.63;;;;;;;21.91;49.00;101846.94;4991523;28;101030;-28
2023/08/07 11:28:22;;;;;;;1.10;0.70;;;;;;;21.93;48.37;101853.19;4995249;28;99695;-27
2023/08/07 11:30:50;;;;;;;1.15;0.50;;;;;;;21.95;48.80;101851.16;4996166;28;96447;-27
2023/08/07 11:33:17;;;;;;;0.93;0.43;;;;;;;21.58;49.31;101845.44;4994742;28;97974;-27
2023/08/07 11:35:43;;;;;;;2.58;0.82;;;;;;;21.33;50.00;101836.63;4994628;28;100913;-27
2023/08/07 11:38:08;;;;;;;0.63;0.47;;;;;;;21.49;50.26;101835.25;4994311;28;101226;-27
2023/08/07 11:40:34;;;;;;;1.45;0.70;;;;;;;21.53;50.39;101853.25;4996206;28;96540;-28
2023/08/07 11:43:00;;;;;;;2.83;0.52;;;;;;;21.57;50.35;101843.66;4994993;28;96898;-27
2023/08/07 11:45:25;;;;;;;2.03;0.93;;;;;;;21.74;50.21;101840.25;4995453;28;98163;-27
2023/08/07 11:47:51;;;;;;;3.03;0.93;;;;;;;21.71;49.86;101845.16;4995670;28;97353;-26
2023/08/07 11:50:16;;;;;;;1.05;0.60;;;;;;;21.71;50.14;101840.50;4995409;28;96617;-27
2023/08/07 11:52:42;;;;;;;5.05;1.08;;;;;;;21.68;51.61;101845.44;4994679;28;96819;-28
2023/08/07 11:55:09;;;;;;;0.98;0.60;;;;;;;21.14;50.51;101848.47;4995545;28;99257;-27
2023/08/07 11:57:37;;;;;;;0.85;0.60;;;;;;;20.93;51.79;101856.78;4994262;28;101034;-27
2023/08/07 12:00:08;;;;;;;1.45;0.60;;;;;;;21.10;51.78;101846.13;4994390;28;96597;-27
2023/08/07 12:02:35;;;;;;;0.83;0.47;;;;;;;21.16;51.65;101846.41;4994215;28;96627;-27
2023/08/07 12:05:00;;;;;;;3.08;0.75;;;;;;;21.25;51.37;101841.09;4994025;28;101226;-27
2023/08/07 12:07:27;;;;;;;4.22;0.90;;;;;;;21.32;52.01;101837.63;4995500;28;98827;-27
2023/08/07 12:09:54;;;;;;;4.15;1.00;;;;;;;20.94;50.91;101841.13;4994220;28;96583;-26
2023/08/07 12:12:20;;;;;;;1.05;0.60;;;;;;;20.63;52.48;101846.59;4994333;28;96745;-28
2023/08/07 12:14:45;;;;;;;4.55;1.13;;;;;;;20.38;53.47;101842.38;4993426;28;100642;-27
2023/08/07 12:17:10;;;;;;;2.85;0.43;;;;;;;20.15;53.56;101849.84;4995781;28;97196;-27
2023/08/07 12:19:40;;;;;;;2.88;0.85;;;;;;;20.06;54.69;101847.91;4995642;28;96512;-27
2023/08/07 12:22:11;;;;;;;2.03;0.70;;;;;;;19.93;54.88;101856.34;4995443;28;96799;-29
2023/08/07 12:24:39;;;;;;;2.77;0.80;;;;;;;19.77;55.24;101859.50;4993876;28;100596;-27
2023/08/07 12:27:05;;;;;;;1.50;0.70;;;;;;;19.66;55.93;101854.00;4993527;28;101077;-27
2023/08/07 12:29:30;;;;;;;1.58;0.70;;;;;;;19.45;56.00;101848.41;4993451;28;96716;-26
2023/08/07 12:31:56;;;;;;;2.70;0.90;;;;;;;19.25;56.32;101853.69;4995677;28;96832;-26
2023/08/07 12:34:21;;;;;;;1.88;0.98;;;;;;;19.14;56.79;101852.81;4994950;28;99276;-26
2023/08/07 12:36:47;;;;;;;3.28;0.70;;;;;;;19.07;58.24;101875.31;4994793;28;97313;-27
2023/08/07 12:39:12;;;;;;;4.38;0.77;;;;;;;19.04;58.71;101872.81;4994827;28;96627;-27
2023/08/07 12:41:37;;;;;;;2.53;0.70;;;;;;;19.03;60.01;101872.94;4995301;28;96785;-27
2023/08/07 12:44:03;;;;;;;1.63;0.90;;;;;;;19.09;59.58;101865.06;4994295;28;97933;-28
2023/08/07 12:46:28;;;;;;;4.97;1.50;;;;;;;19.37;59.67;101860.03;4994777;28;98561;-27
2023/08/07 12:48:54;;;;;;;2.65;0.55;;;;;;;19.31;59.88;101860.56;4995270;28;96788;-26
2023/08/07 12:51:19;;;;;;;0.77;0.60;;;;;;;19.17;62.83;101860.81;4995301;28;96834;-27
2023/08/07 12:53:45;;;;;;;2.47;0.82;;;;;;;19.01;62.87;101870.31;4994862;28;97352;-27
2023/08/07 12:56:10;;;;;;;2.30;0.70;;;;;;;18.83;64.20;101877.25;4995187;28;97850;-27
2023/08/07 12:58:36;;;;;;;3.70;1.10;;;;;;;18.61;65.43;101861.63;4994888;28;96656;-27
2023/08/07 13:01:01;;;;;;;1.83;1.05;;;;;;;18.53;66.12;101877.81;4994896;28;96889;-28
2023/08/07 13:03:26;;;;;;;2.78;0.93;;;;;;;18.27;68.89;101867.03;4994111;28;97908;-27
2023/08/07 13:05:52;;;;;;;2.38;0.80;;;;;;;18.17;68.62;101874.22;4994610;28;97762;-26
2023/08/07 13:08:17;;;;;;;1.35;0.90;;;;;;;18.06;68.88;101866.81;4994618;28;96548;-27
2023/08/07 13:10:43;;;;;;;1.95;0.68;;;;;;;17.86;69.77;101859.25;4994752;28;96713;-27
2023/08/07 13:13:08;;;;;;;1.85;0.98;;;;;;;17.77;71.85;101867.13;4993992;28;98821;-27
2023/08/07 13:15:34;;;;;;;1.75;0.60;;;;;;;17.70;72.34;101873.19;4994585;28;97765;-27
2023/08/07 13:18:00;;;;;;;1.75;0.93;;;;;;;17.58;71.80;101869.50;4994678;28;96502;-27
2023/08/07 13:20:27;;;;;;;1.50;0.73;;;;;;;17.64;72.60;101882.78;4995037;28;96800;-27
2023/08/07 13:22:52;;;;;;;1.85;0.80;;;;;;;17.69;71.53;101879.69;4992806;28;101404;-27
2023/08/07 13:25:17;;;;;;;3.22;1.00;;;;;;;17.72;72.71;101865.75;4994382;28;97811;-27
2023/08/07 13:27:43;;;;;;;1.58;0.85;;;;;;;17.98;72.91;101874.75;4994069;28;96683;-27
2023/08/07 13:30:09;;;;;;;2.10;0.90;;;;;;;18.38;72.07;101867.06;4994632;28;96782;-27
2023/08/07 13:32:36;;;;;;;3.75;1.00;;;;;;;18.59;71.66;101860.84;4992909;28;100927;-27
2023/08/07 13:35:02;;;;;;;1.75;0.85;;;;;;;18.53;70.95;101875.94;4992904;28;99445;-29
2023/08/07 13:37:28;;;;;;;1.45;0.65;;;;;;;18.40;69.11;101869.66;4994310;28;96588;-27
2023/08/07 13:39:54;;;;;;;2.88;1.10;;;;;;;18.34;70.06;101875.66;4994767;28;96773;-28
2023/08/07 13:42:19;;;;;;;3.53;1.00;;;;;;;18.40;69.31;101872.41;4996158;28;99381;-27
2023/08/07 13:44:45;;;;;;;1.50;0.80;;;;;;;18.28;68.00;101866.00;4997646;28;97091;-28
2023/08/07 13:47:11;;;;;;;0.68;0.52;;;;;;;18.33;68.34;101862.91;4997741;28;96530;-26